Time;durP1;ratioP1;P1;durP2;ratioP2;P2;SDS_P1;SDS_P2;PMS_P1;PMS_P2;Temp;Humidity;BMP_temperature;BMP_pressure;BME280_temperature;BME280_humidity;BME280_pressure;Samples;Min_cycle;Max_cycle;Signal;HPM_P1;HPM_P2
2021/09/12 00:00:06;;;;;;;5.80;5.30;;;18.50;99.90;;;;;;5000085;28;20189;-68
2021/09/12 00:02:31;;;;;;;5.80;5.30;;;18.30;99.90;;;;;;5001257;28;20378;-69
2021/09/12 00:04:57;;;;;;;6.27;5.73;;;18.10;99.90;;;;;;4998240;28;20456;-68
2021/09/12 00:07:22;;;;;;;6.83;5.27;;;18.30;99.90;;;;;;5000314;28;20209;-68
2021/09/12 00:09:49;;;;;;;7.07;5.57;;;18.30;99.90;;;;;;4997051;28;20227;-69
2021/09/12 00:12:14;;;;;;;9.73;5.43;;;18.30;99.90;;;;;;4999753;28;20204;-69
2021/09/12 00:14:40;;;;;;;6.10;5.47;;;18.30;99.90;;;;;;4998303;28;20452;-69
2021/09/12 00:17:06;;;;;;;5.73;5.20;;;18.10;99.90;;;;;;4996861;28;20209;-68
2021/09/12 00:19:32;;;;;;;5.77;5.27;;;18.00;99.90;;;;;;4999232;28;20217;-68
2021/09/12 00:21:58;;;;;;;6.30;5.70;;;17.90;99.90;;;;;;4998753;28;20452;-69
2021/09/12 00:24:24;;;;;;;10.10;5.60;;;17.80;99.90;;;;;;4994250;28;20193;-68
2021/09/12 00:26:49;;;;;;;9.93;5.47;;;17.90;99.90;;;;;;4999028;28;20806;-69
2021/09/12 00:29:16;;;;;;;5.80;5.30;;;17.90;99.90;;;;;;4997146;28;20472;-69
2021/09/12 00:31:42;;;;;;;5.53;5.03;;;17.90;99.90;;;;;;4998458;28;20202;-68
2021/09/12 00:34:08;;;;;;;5.77;5.27;;;18.00;99.90;;;;;;4998393;28;20455;-68
2021/09/12 00:36:34;;;;;;;6.63;6.00;;;17.90;99.90;;;;;;4993811;28;20217;-68
2021/09/12 00:38:59;;;;;;;8.90;6.50;;;17.80;99.90;;;;;;4995588;28;20201;-68
2021/09/12 00:41:25;;;;;;;6.47;5.57;;;17.80;99.90;;;;;;4998268;28;20303;-68
2021/09/12 00:43:50;;;;;;;5.70;5.20;;;17.80;99.90;;;;;;4994292;28;20198;-69
2021/09/12 00:46:16;;;;;;;6.53;5.93;;;17.80;99.90;;;;;;4998193;28;20220;-68
2021/09/12 00:48:42;;;;;;;6.97;6.13;;;17.80;99.90;;;;;;4994537;28;20592;-68
2021/09/12 00:51:07;;;;;;;5.47;4.97;;;17.80;99.90;;;;;;4995305;28;20702;-68
2021/09/12 00:53:36;;;;;;;6.60;5.90;;;17.90;99.90;;;;;;4997415;28;20537;-68
2021/09/12 00:56:03;;;;;;;6.33;5.73;;;17.80;99.90;;;;;;4996209;28;20241;-68
2021/09/12 00:58:29;;;;;;;7.87;5.97;;;17.80;99.90;;;;;;5002956;28;20950;-68
2021/09/12 01:00:55;;;;;;;5.90;5.30;;;17.60;99.90;;;;;;5000017;28;20453;-67
2021/09/12 01:03:21;;;;;;;6.47;5.77;;;17.70;99.90;;;;;;4998795;28;20475;-68
2021/09/12 01:05:47;;;;;;;12.23;5.93;;;17.90;99.90;;;;;;4995174;28;20542;-69
2021/09/12 01:08:13;;;;;;;6.50;5.50;;;17.70;99.90;;;;;;4996096;28;20643;-68
2021/09/12 01:10:40;;;;;;;6.10;5.50;;;17.80;99.90;;;;;;4996109;28;20228;-68
2021/09/12 01:13:06;;;;;;;5.37;4.87;;;17.90;99.90;;;;;;4996652;28;20853;-68
2021/09/12 01:15:32;;;;;;;5.80;5.20;;;17.70;99.90;;;;;;4994781;28;20456;-69
2021/09/12 01:17:58;;;;;;;7.17;5.93;;;17.60;99.90;;;;;;4996217;28;20722;-68
2021/09/12 01:20:24;;;;;;;6.50;5.67;;;17.70;99.90;;;;;;4996991;28;20452;-68
2021/09/12 01:22:50;;;;;;;7.30;5.80;;;18.10;99.90;;;;;;4996323;28;20448;-68
2021/09/12 01:25:17;;;;;;;6.00;5.40;;;18.10;99.90;;;;;;4997663;28;20191;-70
2021/09/12 01:27:43;;;;;;;6.10;5.57;;;18.00;99.90;;;;;;4998657;28;20515;-67
2021/09/12 01:30:09;;;;;;;5.90;5.40;;;17.80;99.90;;;;;;4996729;28;20482;-69
2021/09/12 01:32:35;;;;;;;6.30;5.70;;;17.70;99.90;;;;;;4996172;28;20448;-67
2021/09/12 01:35:02;;;;;;;6.07;5.47;;;17.50;99.90;;;;;;4995355;28;20472;-68
2021/09/12 01:37:27;;;;;;;6.87;5.53;;;17.60;99.90;;;;;;4999140;28;21098;-69
2021/09/12 01:39:53;;;;;;;6.40;5.57;;;17.50;99.90;;;;;;5000651;28;20458;-68
2021/09/12 01:42:22;;;;;;;6.50;5.90;;;17.30;99.90;;;;;;4996826;28;20190;-68
2021/09/12 01:44:49;;;;;;;7.17;6.30;;;17.40;99.90;;;;;;4999194;28;20204;-68
2021/09/12 01:47:15;;;;;;;7.03;5.97;;;17.30;99.90;;;;;;4998913;28;20468;-69
2021/09/12 01:49:41;;;;;;;6.43;5.53;;;17.20;99.90;;;;;;4999393;28;20921;-68
2021/09/12 01:52:11;;;;;;;5.90;5.40;;;17.20;99.90;;;;;;5001152;28;20232;-68
2021/09/12 01:54:37;;;;;;;7.30;6.17;;;17.10;99.90;;;;;;5001212;28;20938;-68
2021/09/12 01:57:04;;;;;;;7.37;5.47;;;17.30;99.90;;;;;;5003231;28;20451;-68
2021/09/12 01:59:29;;;;;;;6.20;5.60;;;17.30;99.90;;;;;;5001361;28;20225;-69
2021/09/12 02:01:55;;;;;;;6.23;5.63;;;17.40;99.90;;;;;;4999819;28;20475;-68
2021/09/12 02:04:21;;;;;;;7.43;5.43;;;17.50;99.90;;;;;;5002056;28;20467;-68
2021/09/12 02:06:46;;;;;;;7.33;6.00;;;17.50;99.90;;;;;;5001295;28;20296;-68
2021/09/12 02:09:12;;;;;;;7.10;6.40;;;17.40;99.90;;;;;;4998343;28;20220;-68
2021/09/12 02:11:38;;;;;;;8.13;6.30;;;17.30;99.90;;;;;;5002647;28;20185;-68
2021/09/12 02:14:03;;;;;;;6.23;5.73;;;17.50;99.90;;;;;;5000234;28;20197;-68
2021/09/12 02:16:29;;;;;;;5.70;5.20;;;17.50;99.90;;;;;;5002997;28;20212;-67
2021/09/12 02:18:55;;;;;;;6.27;5.67;;;17.50;99.90;;;;;;4998813;28;20604;-68
2021/09/12 02:21:20;;;;;;;8.30;5.77;;;17.40;99.90;;;;;;4999472;28;20185;-68
2021/09/12 02:23:46;;;;;;;5.73;5.23;;;17.20;99.90;;;;;;5003910;28;20597;-68
2021/09/12 02:26:12;;;;;;;6.40;5.70;;;17.30;99.90;;;;;;4996492;28;20636;-68
2021/09/12 02:28:37;;;;;;;5.63;5.10;;;17.10;99.90;;;;;;5004968;28;20531;-68
2021/09/12 02:31:03;;;;;;;5.93;5.17;;;17.20;99.90;;;;;;5001734;28;20193;-67
2021/09/12 02:33:29;;;;;;;7.27;6.57;;;17.40;99.90;;;;;;5000973;28;20279;-68
2021/09/12 02:35:55;;;;;;;10.73;6.27;;;17.10;99.90;;;;;;5003366;28;20559;-68
2021/09/12 02:38:20;;;;;;;6.20;5.60;;;17.10;99.90;;;;;;5001793;28;20204;-68
2021/09/12 02:40:46;;;;;;;6.60;5.93;;;17.40;99.90;;;;;;5005157;28;20542;-69
2021/09/12 02:43:12;;;;;;;6.67;5.30;;;17.50;99.90;;;;;;5000046;28;20755;-68
2021/09/12 02:45:37;;;;;;;6.50;5.80;;;17.50;99.90;;;;;;5000157;28;20197;-68
2021/09/12 02:48:03;;;;;;;8.20;7.30;;;17.40;99.90;;;;;;5002327;28;20204;-68
2021/09/12 02:50:29;;;;;;;6.87;6.17;;;17.40;99.90;;;;;;5002030;28;21674;-68
2021/09/12 02:52:55;;;;;;;5.80;5.30;;;17.30;99.90;;;;;;5000623;28;20436;-68
2021/09/12 02:55:21;;;;;;;11.10;5.17;;;17.20;99.90;;;;;;5002866;28;20314;-69
2021/09/12 02:57:46;;;;;;;6.60;6.00;;;17.60;99.90;;;;;;4998107;28;20232;-69
2021/09/12 03:00:13;;;;;;;5.40;4.90;;;17.70;99.90;;;;;;5000580;28;20586;-70
2021/09/12 03:02:39;;;;;;;5.77;5.17;;;17.50;99.90;;;;;;5001173;28;20247;-68
2021/09/12 03:05:05;;;;;;;7.33;5.57;;;17.30;99.90;;;;;;5000991;28;20455;-69
2021/09/12 03:07:31;;;;;;;5.07;4.63;;;17.40;99.90;;;;;;4999814;28;20296;-69
2021/09/12 03:09:57;;;;;;;6.13;5.20;;;17.40;99.90;;;;;;5002438;28;20559;-68
2021/09/12 03:12:22;;;;;;;5.30;4.80;;;17.40;99.90;;;;;;5001955;28;20276;-69
2021/09/12 03:14:48;;;;;;;8.83;5.40;;;17.40;99.90;;;;;;5001722;28;20735;-69
2021/09/12 03:17:14;;;;;;;6.57;5.30;;;17.20;99.90;;;;;;4999787;28;20911;-68
2021/09/12 03:19:40;;;;;;;6.20;5.27;;;17.20;99.90;;;;;;4996894;28;20847;-68
2021/09/12 03:22:05;;;;;;;5.47;4.90;;;17.20;99.90;;;;;;5001445;28;20536;-68
2021/09/12 03:24:31;;;;;;;5.57;4.97;;;17.20;99.90;;;;;;5001172;28;20432;-69
2021/09/12 03:26:57;;;;;;;6.37;5.77;;;17.20;99.90;;;;;;5003080;28;20308;-68
2021/09/12 03:29:22;;;;;;;6.00;4.77;;;17.10;99.90;;;;;;5001005;28;20413;-68
2021/09/12 03:31:48;;;;;;;6.20;5.60;;;17.00;99.90;;;;;;5001816;28;20193;-68
2021/09/12 03:34:14;;;;;;;6.80;6.10;;;16.80;99.90;;;;;;5000150;28;20185;-69
2021/09/12 03:36:39;;;;;;;7.07;5.37;;;16.60;99.90;;;;;;5000503;28;20690;-69
2021/09/12 03:39:05;;;;;;;7.50;5.00;;;16.70;99.90;;;;;;5001060;28;20268;-68
2021/09/12 03:41:31;;;;;;;8.57;5.07;;;16.60;99.90;;;;;;4999900;28;20486;-69
2021/09/12 03:43:57;;;;;;;6.10;5.13;;;16.60;99.90;;;;;;5002651;28;20447;-69
2021/09/12 03:46:22;;;;;;;6.13;5.53;;;16.50;99.90;;;;;;5000690;28;20206;-68
2021/09/12 03:48:48;;;;;;;5.77;5.27;;;16.50;99.90;;;;;;4997567;28;20227;-68
2021/09/12 03:51:14;;;;;;;6.17;5.57;;;16.50;99.90;;;;;;5000361;28;20189;-68
2021/09/12 03:53:40;;;;;;;8.23;5.33;;;16.50;99.90;;;;;;4998233;28;20196;-68
2021/09/12 03:56:05;;;;;;;7.00;5.60;;;16.50;99.90;;;;;;5001136;28;20209;-68
2021/09/12 03:58:31;;;;;;;5.57;5.03;;;16.60;99.90;;;;;;4996050;28;20863;-68
2021/09/12 04:00:56;;;;;;;5.90;5.33;;;16.70;99.90;;;;;;4997729;28;20660;-68
2021/09/12 04:03:22;;;;;;;7.30;5.17;;;16.60;99.90;;;;;;4997432;28;20747;-68
2021/09/12 04:05:48;;;;;;;6.10;5.57;;;16.70;99.90;;;;;;4998052;28;20209;-68
2021/09/12 04:08:13;;;;;;;5.77;5.27;;;16.60;99.90;;;;;;4995287;28;20196;-68
2021/09/12 04:10:39;;;;;;;5.63;5.03;;;16.80;99.90;;;;;;4997786;28;20221;-69
2021/09/12 04:13:05;;;;;;;5.40;4.67;;;16.70;99.90;;;;;;4994330;28;20873;-70
2021/09/12 04:15:30;;;;;;;5.20;4.80;;;16.70;99.90;;;;;;4997802;28;20742;-69
2021/09/12 04:17:56;;;;;;;6.37;4.80;;;16.80;99.90;;;;;;4999397;28;20212;-68
2021/09/12 04:20:22;;;;;;;5.73;4.97;;;16.90;99.90;;;;;;4996424;28;20201;-68
2021/09/12 04:22:48;;;;;;;5.57;5.00;;;17.20;99.90;;;;;;5000314;28;20196;-68
2021/09/12 04:25:13;;;;;;;5.10;4.70;;;17.30;99.90;;;;;;4993423;28;20282;-69
2021/09/12 04:27:39;;;;;;;6.10;5.20;;;17.00;99.90;;;;;;4998150;28;20296;-68
2021/09/12 04:30:07;;;;;;;6.03;5.43;;;16.90;99.90;;;;;;4993587;28;20248;-68
2021/09/12 04:32:33;;;;;;;6.90;5.40;;;16.80;99.90;;;;;;4993302;28;20688;-68
2021/09/12 04:34:59;;;;;;;5.87;5.27;;;16.60;99.90;;;;;;4997097;28;20460;-68
2021/09/12 04:37:24;;;;;;;6.17;5.57;;;16.40;99.90;;;;;;4994548;28;20224;-69
2021/09/12 04:39:50;;;;;;;5.77;4.83;;;16.40;99.90;;;;;;4995327;28;20201;-68
2021/09/12 04:42:16;;;;;;;7.07;6.40;;;16.40;99.90;;;;;;5007996;28;20658;-69
2021/09/12 04:44:42;;;;;;;6.73;5.50;;;16.20;99.90;;;;;;4999487;28;20189;-69
2021/09/12 04:47:10;;;;;;;5.93;5.43;;;16.40;99.90;;;;;;5003854;28;20212;-68
2021/09/12 04:49:36;;;;;;;5.80;5.30;;;16.60;99.90;;;;;;4999018;28;20221;-68
2021/09/12 04:52:01;;;;;;;6.47;4.80;;;16.50;99.90;;;;;;5001210;28;20730;-68
2021/09/12 04:54:27;;;;;;;6.10;5.60;;;16.50;99.90;;;;;;5004226;28;20213;-68
2021/09/12 04:56:53;;;;;;;5.27;4.77;;;16.60;99.90;;;;;;4999402;28;20672;-68
2021/09/12 04:59:18;;;;;;;6.27;4.90;;;16.50;99.90;;;;;;5001409;28;20723;-68
2021/09/12 05:01:44;;;;;;;5.37;4.87;;;16.60;99.90;;;;;;4999418;28;20311;-68
2021/09/12 05:04:09;;;;;;;6.23;5.03;;;16.70;99.90;;;;;;4999636;28;20660;-68
2021/09/12 05:06:35;;;;;;;7.00;5.53;;;16.70;99.90;;;;;;5001223;28;20209;-69
2021/09/12 05:09:00;;;;;;;5.07;4.67;;;16.40;99.90;;;;;;5001709;28;20709;-68
2021/09/12 05:11:26;;;;;;;6.60;4.80;;;16.30;99.90;;;;;;5002002;28;20193;-69
2021/09/12 05:13:52;;;;;;;5.07;4.07;;;16.40;99.90;;;;;;5002461;28;20570;-67
2021/09/12 05:16:17;;;;;;;5.63;5.00;;;16.40;99.90;;;;;;5002602;28;20216;-68
2021/09/12 05:18:43;;;;;;;5.10;4.60;;;16.40;99.90;;;;;;4996914;28;20202;-69
2021/09/12 05:21:09;;;;;;;5.73;4.80;;;16.40;99.90;;;;;;5009017;28;20188;-69
2021/09/12 05:23:35;;;;;;;6.27;4.50;;;16.20;99.90;;;;;;5004167;28;20374;-69
2021/09/12 05:26:00;;;;;;;7.57;4.67;;;16.20;99.90;;;;;;5003260;28;20263;-68
2021/09/12 05:28:26;;;;;;;6.43;5.37;;;16.30;99.90;;;;;;5007927;28;20207;-68
2021/09/12 05:30:52;;;;;;;5.40;4.87;;;16.30;99.90;;;;;;5003029;28;20205;-69
2021/09/12 05:33:18;;;;;;;6.20;5.60;;;16.50;99.90;;;;;;5007413;28;20220;-68
2021/09/12 05:35:44;;;;;;;5.13;4.63;;;16.50;99.90;;;;;;5006048;28;20185;-68
2021/09/12 05:38:09;;;;;;;5.80;4.80;;;16.30;99.90;;;;;;5003459;28;20509;-68
2021/09/12 05:40:35;;;;;;;6.40;5.00;;;16.10;99.90;;;;;;5007226;28;20589;-69
2021/09/12 05:43:01;;;;;;;10.50;4.77;;;16.10;99.90;;;;;;5005086;28;20692;-68
2021/09/12 05:45:27;;;;;;;4.77;4.20;;;16.20;99.90;;;;;;5000466;28;20448;-69
2021/09/12 05:47:53;;;;;;;5.47;4.77;;;16.10;99.90;;;;;;5008328;28;20481;-68
2021/09/12 05:50:18;;;;;;;5.53;5.03;;;16.10;99.90;;;;;;4999821;28;20229;-68
2021/09/12 05:52:44;;;;;;;5.63;5.10;;;16.00;99.90;;;;;;5005732;28;20193;-69
2021/09/12 05:55:10;;;;;;;6.60;4.53;;;16.10;99.90;;;;;;5005585;28;20209;-68
2021/09/12 05:57:36;;;;;;;5.60;5.00;;;16.20;99.90;;;;;;5000499;28;20275;-68
2021/09/12 06:00:04;;;;;;;5.90;4.50;;;16.30;99.90;;;;;;5007570;28;20197;-69
2021/09/12 06:02:30;;;;;;;5.30;4.77;;;16.10;99.90;;;;;;5017282;28;20559;-69
2021/09/12 06:04:55;;;;;;;5.10;4.60;;;16.00;99.90;;;;;;5001206;28;20460;-68
2021/09/12 06:07:21;;;;;;;5.07;4.57;;;16.10;99.90;;;;;;5008126;28;20802;-68
2021/09/12 06:09:47;;;;;;;5.50;5.00;;;16.30;99.90;;;;;;5002088;28;20274;-68
2021/09/12 06:12:12;;;;;;;5.00;4.47;;;16.20;99.90;;;;;;5006047;28;20650;-69
2021/09/12 06:14:38;;;;;;;5.03;4.53;;;16.30;99.90;;;;;;5004439;28;20611;-69
2021/09/12 06:17:07;;;;;;;5.37;4.90;;;16.30;99.90;;;;;;5004171;28;20220;-68
2021/09/12 06:19:36;;;;;;;6.70;4.53;;;16.60;99.90;;;;;;5004209;28;20674;-68
2021/09/12 06:22:06;;;;;;;5.13;4.47;;;16.80;99.90;;;;;;5003218;28;20542;-68
2021/09/12 06:24:32;;;;;;;5.63;5.13;;;16.90;99.90;;;;;;5003047;28;21084;-68
2021/09/12 06:26:58;;;;;;;4.90;4.40;;;16.60;99.90;;;;;;5005369;28;20573;-68
2021/09/12 06:29:23;;;;;;;7.40;4.73;;;16.40;99.90;;;;;;5001570;28;20813;-69
2021/09/12 06:31:50;;;;;;;5.43;3.97;;;16.60;99.90;;;;;;5006144;28;20192;-69
2021/09/12 06:34:16;;;;;;;5.70;5.07;;;16.30;99.90;;;;;;5003181;28;20188;-68
2021/09/12 06:36:42;;;;;;;5.20;4.57;;;16.40;99.90;;;;;;5000143;28;20468;-69
2021/09/12 06:39:08;;;;;;;8.60;5.40;;;16.50;99.90;;;;;;5005679;28;20566;-68
2021/09/12 06:41:34;;;;;;;6.50;4.57;;;16.40;99.90;;;;;;5001041;28;20937;-68
2021/09/12 06:43:59;;;;;;;5.43;4.93;;;16.70;99.90;;;;;;5005526;28;20455;-68
2021/09/12 06:46:25;;;;;;;4.97;4.47;;;16.70;99.90;;;;;;5003520;28;20217;-69
2021/09/12 06:48:53;;;;;;;6.13;5.53;;;16.80;99.90;;;;;;5002657;28;20217;-69
2021/09/12 06:51:19;;;;;;;7.90;4.60;;;16.80;99.90;;;;;;5004064;28;20197;-68
2021/09/12 06:53:45;;;;;;;6.33;4.60;;;16.50;99.90;;;;;;5004598;28;20583;-68
2021/09/12 06:56:10;;;;;;;4.90;4.50;;;16.70;99.90;;;;;;5001204;28;20777;-68
2021/09/12 06:58:36;;;;;;;5.67;4.93;;;16.70;99.90;;;;;;5008724;28;20199;-69
2021/09/12 07:01:01;;;;;;;6.23;4.40;;;16.90;99.90;;;;;;5003097;28;20193;-68
2021/09/12 07:03:27;;;;;;;5.50;4.77;;;16.90;99.90;;;;;;5004779;28;20272;-68
2021/09/12 07:05:53;;;;;;;6.37;4.30;;;17.00;99.90;;;;;;5006012;28;20286;-69
2021/09/12 07:08:19;;;;;;;4.80;4.40;;;17.20;99.90;;;;;;5002497;28;20193;-69
2021/09/12 07:10:44;;;;;;;6.07;4.77;;;17.10;99.90;;;;;;5008074;28;20224;-69
2021/09/12 07:13:10;;;;;;;6.70;6.10;;;17.50;99.90;;;;;;5001406;28;20195;-68
2021/09/12 07:15:36;;;;;;;6.40;4.53;;;17.70;99.90;;;;;;5003996;28;20249;-69
2021/09/12 07:18:01;;;;;;;8.47;5.87;;;17.90;99.90;;;;;;5006863;28;20570;-68
2021/09/12 07:20:27;;;;;;;7.40;4.90;;;18.10;99.90;;;;;;5000921;28;20193;-68
2021/09/12 07:22:53;;;;;;;6.10;4.70;;;18.20;99.90;;;;;;5005473;28;20289;-69
2021/09/12 07:25:19;;;;;;;4.80;4.37;;;18.10;99.90;;;;;;5002299;28;20252;-69
2021/09/12 07:27:44;;;;;;;5.67;5.07;;;18.20;99.90;;;;;;5005312;28;20209;-69
2021/09/12 07:30:11;;;;;;;8.40;6.43;;;18.30;99.90;;;;;;5005731;28;20220;-68
2021/09/12 07:32:37;;;;;;;6.40;5.60;;;18.40;99.90;;;;;;4998789;28;20668;-68
2021/09/12 07:35:03;;;;;;;6.60;5.03;;;18.60;99.90;;;;;;5007838;28;20451;-68
2021/09/12 07:37:28;;;;;;;10.10;7.90;;;18.60;99.90;;;;;;4999064;28;20238;-68
2021/09/12 07:39:55;;;;;;;5.47;4.97;;;18.60;99.90;;;;;;5004331;28;20441;-69
2021/09/12 07:42:20;;;;;;;5.20;4.70;;;18.70;99.90;;;;;;5003374;28;20220;-69
2021/09/12 07:44:47;;;;;;;5.30;4.80;;;18.70;99.90;;;;;;5000816;28;20465;-69
2021/09/12 07:47:15;;;;;;;4.80;4.00;;;18.80;99.90;;;;;;5006777;28;20227;-69
2021/09/12 07:49:41;;;;;;;4.23;3.83;;;18.90;99.90;;;;;;5004906;28;20916;-68
2021/09/12 07:52:07;;;;;;;4.70;4.30;;;18.90;99.90;;;;;;5003390;28;20460;-69
2021/09/12 07:54:33;;;;;;;12.63;4.30;;;19.00;99.90;;;;;;5006029;28;20200;-69
2021/09/12 07:56:59;;;;;;;4.53;4.03;;;18.80;99.90;;;;;;5013528;28;21104;-68
2021/09/12 07:59:27;;;;;;;6.63;5.20;;;18.60;99.90;;;;;;5000934;28;20280;-69
2021/09/12 08:01:53;;;;;;;6.17;4.90;;;18.80;99.90;;;;;;5005129;28;21114;-69
2021/09/12 08:04:25;;;;;;;5.10;4.37;;;18.90;99.90;;;;;;5043607;28;20595;-68
2021/09/12 08:06:50;;;;;;;6.40;4.23;;;19.00;99.90;;;;;;5028004;28;20459;-69
2021/09/12 08:09:16;;;;;;;7.97;4.70;;;18.70;99.90;;;;;;5029511;28;20722;-68
2021/09/12 08:11:42;;;;;;;7.40;5.57;;;18.90;99.90;;;;;;5031105;28;20177;-69
2021/09/12 08:14:07;;;;;;;7.67;5.20;;;19.00;99.90;;;;;;5028711;28;20227;-70
2021/09/12 08:16:33;;;;;;;4.80;4.40;;;19.10;99.90;;;;;;5029228;28;20208;-69
2021/09/12 08:18:59;;;;;;;5.10;4.60;;;19.20;99.90;;;;;;5029332;28;22555;-69
2021/09/12 08:21:26;;;;;;;5.30;4.80;;;19.30;99.90;;;;;;5022243;28;20196;-68
2021/09/12 08:23:51;;;;;;;5.83;4.40;;;19.30;99.90;;;;;;5029638;28;20208;-68
2021/09/12 08:26:17;;;;;;;4.97;4.23;;;19.30;99.90;;;;;;5028201;28;20824;-68
2021/09/12 08:28:43;;;;;;;7.07;4.50;;;19.50;99.90;;;;;;5033213;28;20238;-69
2021/09/12 08:31:08;;;;;;;8.50;7.70;;;19.60;99.90;;;;;;5030164;28;20254;-70
2021/09/12 08:33:34;;;;;;;8.07;4.60;;;19.70;99.90;;;;;;5027890;28;20220;-71
2021/09/12 08:36:00;;;;;;;6.00;5.10;;;19.60;99.90;;;;;;5034508;28;20303;-71
2021/09/12 08:38:25;;;;;;;6.63;4.77;;;19.70;99.90;;;;;;5030437;28;20188;-70
2021/09/12 08:40:57;;;;;;;4.53;4.13;;;19.70;99.90;;;;;;5027931;28;20271;-71
2021/09/12 08:43:22;;;;;;;4.70;4.30;;;19.80;99.90;;;;;;5031041;28;20217;-71
2021/09/12 08:45:49;;;;;;;6.53;4.80;;;19.90;99.90;;;;;;5019844;28;20497;-70
2021/09/12 08:48:15;;;;;;;3.93;3.53;;;19.80;99.90;;;;;;5029570;28;20201;-69
2021/09/12 08:50:41;;;;;;;5.77;5.20;;;19.90;99.90;;;;;;5029231;28;20430;-69
2021/09/12 08:53:06;;;;;;;6.00;5.20;;;20.00;99.90;;;;;;5024589;28;21164;-68
2021/09/12 08:55:32;;;;;;;4.67;3.77;;;20.00;99.90;;;;;;5030176;28;20242;-68
2021/09/12 08:57:59;;;;;;;7.43;3.67;;;20.10;99.90;;;;;;5025325;28;20220;-68
2021/09/12 09:00:26;;;;;;;4.07;3.57;;;20.10;99.90;;;;;;5032893;28;20876;-68
2021/09/12 09:03:03;;;;;;;6.23;4.00;;;20.30;99.90;;;;;;5028877;28;20475;-67
2021/09/12 09:05:34;;;;;;;9.90;7.87;;;20.20;99.90;;;;;;5029283;28;20422;-67
2021/09/12 09:08:11;;;;;;;5.17;4.63;;;20.30;99.90;;;;;;5028428;28;20462;-65
2021/09/12 09:10:43;;;;;;;4.60;4.10;;;20.30;99.90;;;;;;5024913;28;20467;-67
2021/09/12 09:13:34;;;;;;;6.83;6.17;;;20.50;99.90;;;;;;5033331;28;20441;-67
2021/09/12 09:16:02;;;;;;;7.07;4.20;;;20.70;99.90;;;;;;5005656;28;20471;-68
2021/09/12 09:18:33;;;;;;;3.70;3.40;;;20.80;99.90;;;;;;5015455;28;20467;-68
2021/09/12 09:20:59;;;;;;;4.87;3.70;;;20.80;99.90;;;;;;5019725;28;20730;-67
2021/09/12 09:23:25;;;;;;;4.20;3.80;;;20.90;99.90;;;;;;5009994;28;20486;-67
2021/09/12 09:25:52;;;;;;;5.80;4.17;;;21.00;99.90;;;;;;5014280;28;20440;-67
2021/09/12 09:28:19;;;;;;;3.53;3.23;;;21.00;99.90;;;;;;5014645;28;20250;-67
2021/09/12 09:30:49;;;;;;;5.20;3.90;;;21.00;99.90;;;;;;5013831;28;20585;-67
2021/09/12 09:33:15;;;;;;;3.87;3.50;;;20.90;99.90;;;;;;5012295;28;20475;-68
2021/09/12 09:36:02;;;;;;;3.90;3.60;;;21.10;99.90;;;;;;5016222;28;20449;-67
2021/09/12 09:38:36;;;;;;;3.93;3.63;;;21.30;99.90;;;;;;5009270;28;20652;-67
2021/09/12 09:41:14;;;;;;;4.50;3.43;;;21.30;99.90;;;;;;5016067;28;20810;-67
2021/09/12 09:43:45;;;;;;;4.70;3.17;;;21.40;99.90;;;;;;5017768;28;20830;-67
2021/09/12 09:46:35;;;;;;;6.00;4.50;;;21.40;99.90;;;;;;5013006;28;20450;-67
2021/09/12 09:49:22;;;;;;;4.60;3.43;;;21.50;99.90;;;;;;5012991;28;20440;-67
2021/09/12 09:51:57;;;;;;;4.20;3.80;;;21.60;99.90;;;;;;5009406;28;20783;-66
2021/09/12 09:54:29;;;;;;;4.10;3.40;;;21.70;99.90;;;;;;5015109;28;20432;-67
2021/09/12 09:56:56;;;;;;;3.70;3.30;;;21.50;99.90;;;;;;5010470;28;20443;-67
2021/09/12 09:59:24;;;;;;;3.77;3.07;;;21.70;99.90;;;;;;5018667;28;20534;-67
2021/09/12 10:01:51;;;;;;;3.70;3.13;;;21.70;99.90;;;;;;5012171;28;20806;-67
2021/09/12 10:04:18;;;;;;;3.83;3.30;;;21.80;99.90;;;;;;5011249;28;20467;-67
2021/09/12 10:06:45;;;;;;;3.73;3.40;;;21.80;99.90;;;;;;5019063;28;20485;-67
2021/09/12 10:09:16;;;;;;;3.57;3.27;;;21.80;99.90;;;;;;5009424;28;20449;-68
2021/09/12 10:11:47;;;;;;;4.27;3.87;;;21.90;99.90;;;;;;5008480;28;20467;-67
2021/09/12 10:14:16;;;;;;;6.50;5.50;;;22.00;99.90;;;;;;5010903;28;20436;-69
2021/09/12 10:16:44;;;;;;;7.77;6.30;;;22.00;99.90;;;;;;5015497;28;20997;-69
2021/09/12 10:19:09;;;;;;;4.90;3.60;;;22.00;99.90;;;;;;5011481;28;20551;-69
2021/09/12 10:21:35;;;;;;;3.73;3.30;;;22.00;99.90;;;;;;5014077;28;20443;-69
2021/09/12 10:24:08;;;;;;;4.70;3.30;;;21.90;99.90;;;;;;5015562;28;20201;-68
2021/09/12 10:26:42;;;;;;;3.93;3.00;;;21.80;99.90;;;;;;5005506;28;20209;-69
2021/09/12 10:29:51;;;;;;;4.57;3.37;;;21.80;99.90;;;;;;4999795;28;20532;-69
2021/09/12 10:32:35;;;;;;;4.40;3.43;;;21.90;99.90;;;;;;4983114;28;20484;-70
2021/09/12 10:35:26;;;;;;;3.30;3.00;;;21.90;99.90;;;;;;5007962;28;20800;-69
2021/09/12 10:38:01;;;;;;;3.33;3.03;;;22.00;99.90;;;;;;5006942;28;20456;-70
2021/09/12 10:40:49;;;;;;;3.73;3.33;;;22.20;99.90;;;;;;5013410;28;20419;-70
2021/09/12 10:43:24;;;;;;;3.43;3.13;;;22.30;99.90;;;;;;5005449;28;20899;-70
2021/09/12 10:46:04;;;;;;;3.20;2.90;;;22.40;99.90;;;;;;5011798;28;20525;-69
2021/09/12 10:48:34;;;;;;;6.33;5.30;;;22.50;99.90;;;;;;5016429;28;20945;-69
2021/09/12 10:51:05;;;;;;;4.00;3.50;;;22.50;99.90;;;;;;5009745;28;20448;-69
2021/09/12 10:53:46;;;;;;;3.90;3.40;;;22.70;99.90;;;;;;5007574;28;20448;-70
2021/09/12 10:56:18;;;;;;;3.90;3.60;;;22.60;99.90;;;;;;5016386;28;20483;-69
2021/09/12 10:58:49;;;;;;;5.70;3.20;;;22.80;99.90;;;;;;5005284;28;20593;-70
2021/09/12 11:01:39;;;;;;;3.80;3.50;;;22.90;99.90;;;;;;5012039;28;20822;-70
2021/09/12 11:04:06;;;;;;;3.90;3.40;;;23.10;99.90;;;;;;5012969;28;20537;-70
2021/09/12 11:06:37;;;;;;;3.37;3.07;;;23.20;99.90;;;;;;5016384;28;20972;-62
2021/09/12 11:09:24;;;;;;;5.13;3.60;;;23.20;99.90;;;;;;5007305;28;20831;-62
2021/09/12 11:11:55;;;;;;;3.93;2.93;;;23.30;99.90;;;;;;5006127;28;20514;-62
2021/09/12 11:14:21;;;;;;;3.43;3.13;;;23.40;99.90;;;;;;5015479;28;20519;-61
2021/09/12 11:16:48;;;;;;;3.60;3.13;;;23.40;99.90;;;;;;5012285;28;20919;-62
2021/09/12 11:19:14;;;;;;;3.60;3.13;;;23.40;99.90;;;;;;5013190;28;20680;-63
2021/09/12 11:21:50;;;;;;;3.93;2.97;;;23.40;99.90;;;;;;5014120;28;20466;-62
2021/09/12 11:24:27;;;;;;;3.30;3.00;;;23.60;99.90;;;;;;5010090;28;20302;-62
2021/09/12 11:26:54;;;;;;;3.43;3.13;;;23.70;99.90;;;;;;5011675;28;20454;-62
2021/09/12 11:29:24;;;;;;;3.10;2.90;;;23.60;99.90;;;;;;5011977;28;20454;-62
2021/09/12 11:32:03;;;;;;;4.37;3.67;;;23.40;99.90;;;;;;5010252;28;20430;-61
2021/09/12 11:34:29;;;;;;;5.53;4.93;;;23.40;99.90;;;;;;5013546;28;20921;-62
2021/09/12 11:37:06;;;;;;;4.77;4.23;;;23.50;99.90;;;;;;5004207;28;20453;-61
2021/09/12 11:39:37;;;;;;;4.27;3.87;;;23.60;99.90;;;;;;5008820;28;20430;-62
2021/09/12 11:42:11;;;;;;;4.80;4.33;;;23.60;99.90;;;;;;5007756;28;20462;-62
2021/09/12 11:44:41;;;;;;;5.87;3.63;;;23.80;99.90;;;;;;5009832;28;20530;-62
2021/09/12 11:47:10;;;;;;;6.60;3.10;;;23.90;99.90;;;;;;5010363;28;20829;-62
2021/09/12 11:49:36;;;;;;;3.70;3.40;;;23.90;99.90;;;;;;5013651;28;20474;-62
2021/09/12 11:52:02;;;;;;;4.10;3.40;;;24.00;99.90;;;;;;5012574;28;20423;-62
2021/09/12 11:54:32;;;;;;;3.00;2.80;;;24.10;99.90;;;;;;5012225;28;20440;-61
2021/09/12 11:57:02;;;;;;;3.80;3.47;;;24.10;99.90;;;;;;5013517;28;20470;-60
2021/09/12 11:59:46;;;;;;;10.63;7.17;;;24.10;99.90;;;;;;5011091;28;20443;-60
2021/09/12 12:02:19;;;;;;;10.13;3.43;;;24.20;99.90;;;;;;5013624;28;20514;-61
2021/09/12 12:04:46;;;;;;;4.70;2.93;;;24.10;99.90;;;;;;5011961;28;20843;-61
2021/09/12 12:07:11;;;;;;;3.40;3.10;;;24.00;99.90;;;;;;5011518;28;20466;-61
2021/09/12 12:09:42;;;;;;;6.23;3.53;;;24.20;99.90;;;;;;5013531;28;20431;-61
2021/09/12 12:12:19;;;;;;;5.80;4.83;;;24.20;99.90;;;;;;5013140;28;20655;-61
2021/09/12 12:15:00;;;;;;;4.60;3.50;;;24.30;99.90;;;;;;5011724;28;20949;-61
2021/09/12 12:17:27;;;;;;;3.77;3.30;;;24.20;99.90;;;;;;5006685;28;20475;-61
2021/09/12 12:19:57;;;;;;;3.90;3.50;;;24.20;99.90;;;;;;5015582;28;20869;-62
2021/09/12 12:22:34;;;;;;;3.20;2.90;;;24.40;99.90;;;;;;5014056;28;20431;-62
2021/09/12 12:24:59;;;;;;;3.43;2.80;;;24.50;99.90;;;;;;5011710;28;20487;-62
2021/09/12 12:27:25;;;;;;;2.83;2.63;;;24.50;99.90;;;;;;5012207;28;20458;-63
2021/09/12 12:30:03;;;;;;;3.33;3.03;;;24.70;99.90;;;;;;5010978;28;20196;-63
2021/09/12 12:32:32;;;;;;;3.43;3.13;;;25.20;99.90;;;;;;5015185;28;20189;-62
2021/09/12 12:35:01;;;;;;;3.50;3.20;;;25.70;99.90;;;;;;5010165;28;20863;-62
2021/09/12 12:37:27;;;;;;;4.67;3.37;;;26.20;99.90;;;;;;5010860;28;20467;-65
2021/09/12 12:40:00;;;;;;;4.00;3.57;;;26.60;99.90;;;;;;5016084;28;20644;-62
2021/09/12 12:42:42;;;;;;;3.43;3.17;;;26.90;99.90;;;;;;5010028;28;20185;-61
2021/09/12 12:45:28;;;;;;;4.03;3.73;;;27.40;99.90;;;;;;5014759;28;20957;-61
2021/09/12 12:48:14;;;;;;;2.97;2.77;;;27.40;99.90;;;;;;5008375;28;20463;-62